McGintytown, Arkansas
Current Conditions -  °F | °C
As of 3:58 PM on Wednesday 28 Jan 2015 (Local Time) from KLRF Reporting Station
Clear Clear  
Wind Chill: 62°   Ceiling: Unl
Heat Index: 62°   Visibility: 10mi
Dew Point: 39°   Wind: 8mph
Humidity: 43%   Direction: 140°SE
Pressure: 30.07"   Gusts: NA
Location:  35.2494°N, 92.313°W
Report Text: KLRF 282158Z AUTO 14007KT 10SM CLR 17/04 A3007 RMK AO2 SLP186 T01670041
Loading
Personal Weather Stations






























Interactive Weather Map New forecast layout! Learn more

10-Day Weather Forecast

Advertisements
Track Severe Weather on mobile